Mc Alester Regional Airport
KMLC : now visible

Airfield :











YOU CAN JOIN US ON...

 
LOGIN :

Register | Disclaimer

   EN    FR    IT 

 









Legend :    VFR   Marginal VFR   IFR   Intensive IFR   Very Intensive IFR
Visi :
Ceiling :
>= 8 km
>= 3000ft
5 to 8 km
1000 to 3000 ft
1500m to 5 km
500 to 1000 ft
800 to 1500m
200 to 500 ft
< 800m
< 200 ft
Symbols :   Thunderstorms  Fog  Heavy snow  Heavy precipitations  Wind > 20 kt






- Airport Elevation : 770 ft


KMLC - Mc Alester Regional

CURRENT METAR :
  • 291453Z AUTO 35013KT 7SM OVC004 02/01 A3009 RMK AO2 SLP191 60000 I1000 I3000 T00220011 53017

EXPIRED METARs :
  • 291429Z AUTO 34011G19KT 3SM BR OVC004 02/01 A3008 RMK AO2 I1000 T00220011
  • 291353Z AUTO 34012G21KT 10SM OVC005 02/01 A3008 RMK AO2 SLP185 T00220011
  • 291338Z AUTO 34013KT 10SM OVC005 02/01 A3007 RMK AO2 T00220011
  • 291301Z AUTO 34013KT 10SM OVC006 03/01 A3005 RMK AO2 T00280011
  • 291248Z AUTO 35011KT 7SM OVC005 03/01 A3004 RMK AO2 RAB21E43 P0000
  • 291225Z AUTO 34011G20KT 3SM -RA BR OVC006 03/01 A3004 RMK AO2 RAB21 P0000 T00280011
  • 291153Z AUTO 35011KT 5SM BR OVC005 03/02 A3002 RMK AO2 SLP168 60001 70101 T00280017 10050 20028 51017

TAF KMLC
Valid from the 29 at 12:00 until the 30 at 12:00 UTC


291122Z 2912/3012 35011G18KT P6SM OVC005
FM291700 36010KT P6SM OVC015
FM300600 36004KT 4SM BR OVC015



MET'MAP, your aeronautical weather chart ! - Copyright ORBIFLY December 2007 - Disclaimer

ORBIFLY MET'MAP TEAM :

Programming & Development : Alexandra Zaïnal
Concept & original design : Baudouin d'Aumeries
Assistance for programming : Marc-Olivier Méhu
Technical & hardware support : Manuel Goepfert

Contact : metmap@orbifly.com




SOURCES & CREDITS :

   NOAA       Earth
Advisory